createdAt,value
2019-06-15T00:00:34.103Z,69.52
2019-06-15T00:01:34.094Z,69.81
2019-06-15T00:02:34.081Z,69.62
2019-06-15T00:03:34.142Z,69.52
2019-06-15T00:04:34.066Z,69.62
2019-06-15T00:05:34.044Z,69.62
2019-06-15T00:06:34.034Z,69.65
2019-06-15T00:07:34.029Z,69.74
2019-06-15T00:08:34.011Z,69.62
2019-06-15T00:09:34.077Z,69.71
2019-06-15T00:10:34.012Z,69.81
2019-06-15T00:11:33.986Z,69.81
2019-06-15T00:12:33.969Z,69.81
2019-06-15T00:13:33.952Z,69.95
2019-06-15T00:14:33.957Z,69.71
2019-06-15T00:15:34.023Z,69.65
2019-06-15T00:16:33.936Z,69.91
2019-06-15T00:17:33.916Z,69.71
2019-06-15T00:18:34.071Z,70.04
2019-06-15T00:19:33.895Z,69.62
2019-06-15T00:20:33.885Z,69.45
2019-06-15T00:21:33.954Z,69.95
2019-06-15T00:22:33.861Z,69.42
2019-06-15T00:23:33.860Z,69.91
2019-06-15T00:24:35.659Z,69.85
2019-06-15T00:25:33.842Z,69.85
2019-06-15T00:26:33.814Z,69.95
2019-06-15T00:27:33.890Z,69.85
2019-06-15T00:28:33.799Z,69.74
2019-06-15T00:29:33.796Z,69.74
2019-06-15T00:30:33.806Z,69.74
2019-06-15T00:31:33.769Z,69.74
2019-06-15T00:32:33.756Z,70.04
2019-06-15T00:33:33.827Z,69.55
2019-06-15T00:34:33.737Z,69.74
2019-06-15T00:35:33.736Z,69.85
2019-06-15T00:36:33.714Z,69.74
2019-06-15T00:37:33.708Z,69.74
2019-06-15T00:38:33.698Z,70.14
2019-06-15T00:39:33.754Z,70.24
2019-06-15T00:40:33.667Z,69.74
2019-06-15T00:41:33.657Z,69.74
2019-06-15T00:42:33.652Z,69.65
2019-06-15T00:43:33.632Z,70.14
2019-06-15T00:44:33.636Z,70.24
2019-06-15T00:45:33.693Z,70.14
2019-06-15T00:46:33.604Z,70.14
2019-06-15T00:47:33.601Z,70.04
2019-06-15T00:48:33.587Z,70.14
2019-06-15T00:49:33.572Z,70.14
2019-06-15T00:50:33.559Z,70.24
2019-06-15T00:51:33.635Z,70.14
2019-06-15T00:52:33.545Z,70.24
2019-06-15T00:53:33.524Z,70.14
2019-06-15T00:54:33.536Z,70.04
2019-06-15T00:55:33.509Z,70.14
2019-06-15T00:56:33.496Z,70.04
2019-06-15T00:57:33.557Z,69.95
2019-06-15T00:58:33.485Z,70.04
2019-06-15T00:59:33.462Z,70.04
2019-06-15T01:00:33.448Z,70.04
2019-06-15T01:01:35.443Z,70.14
2019-06-15T01:02:33.435Z,70.24
2019-06-15T01:03:33.496Z,70.24
2019-06-15T01:04:33.415Z,70.04
2019-06-15T01:05:33.399Z,70.14
2019-06-15T01:06:33.419Z,70.14
2019-06-15T01:07:33.382Z,70.14
2019-06-15T01:08:33.368Z,70.24
2019-06-15T01:09:33.437Z,70.24
2019-06-15T01:10:33.346Z,70.14
2019-06-15T01:11:33.349Z,70.24
2019-06-15T01:12:33.330Z,70.24
2019-06-15T01:13:33.320Z,70.14
2019-06-15T01:14:33.315Z,69.95
2019-06-15T01:15:33.371Z,70.14
2019-06-15T01:16:33.292Z,70.04
2019-06-15T01:17:33.278Z,70.14
2019-06-15T01:18:33.263Z,70.14
2019-06-15T01:19:33.289Z,70.04
2019-06-15T01:20:33.242Z,70.04
2019-06-15T01:21:33.295Z,69.74
2019-06-15T01:22:33.223Z,69.95
2019-06-15T01:23:33.210Z,69.74
2019-06-15T01:24:33.203Z,70.04
2019-06-15T01:25:33.191Z,69.95
2019-06-15T01:26:33.183Z,69.95
2019-06-15T01:27:33.251Z,70.04
2019-06-15T01:28:33.154Z,69.74
2019-06-15T01:29:33.142Z,69.95
2019-06-15T01:30:33.125Z,69.95
2019-06-15T01:31:33.117Z,69.95
2019-06-15T01:32:33.109Z,70.24
2019-06-15T01:33:33.173Z,69.95
2019-06-15T01:34:33.088Z,69.74
2019-06-15T01:35:33.086Z,69.95
2019-06-15T01:36:33.069Z,69.95
2019-06-15T01:37:33.060Z,69.74
2019-06-15T01:38:33.052Z,69.95
2019-06-15T01:39:33.122Z,69.74
2019-06-15T01:40:33.018Z,69.74
2019-06-15T01:41:33.022Z,70.04
2019-06-15T01:42:33.006Z,69.95
2019-06-15T01:43:33.000Z,69.95
2019-06-15T01:44:32.987Z,69.74
2019-06-15T01:45:33.044Z,69.95
2019-06-15T01:46:32.959Z,70.04
2019-06-15T01:47:32.962Z,69.95
2019-06-15T01:48:32.944Z,69.74
2019-06-15T01:49:32.932Z,69.95
2019-06-15T01:50:32.923Z,69.95
2019-06-15T01:51:32.983Z,69.74
2019-06-15T01:52:32.897Z,69.95
2019-06-15T01:53:32.890Z,69.95
2019-06-15T01:54:32.873Z,69.95
2019-06-15T01:55:32.863Z,69.74
2019-06-15T01:56:32.851Z,69.95
2019-06-15T01:57:32.932Z,69.85
2019-06-15T01:58:32.832Z,69.95
2019-06-15T01:59:32.819Z,69.95
2019-06-15T02:00:32.822Z,69.74
2019-06-15T02:01:32.800Z,69.85
2019-06-15T02:02:32.793Z,69.85
2019-06-15T02:03:32.874Z,69.74
2019-06-15T02:04:32.761Z,69.95
2019-06-15T02:05:32.748Z,69.29
2019-06-15T02:06:32.781Z,69.98
2019-06-15T02:07:32.733Z,69.55
2019-06-15T02:08:32.726Z,69.68
2019-06-15T02:09:32.793Z,69.65
2019-06-15T02:10:32.744Z,69.65
2019-06-15T02:11:32.696Z,69.78
2019-06-15T02:12:32.691Z,69.74
2019-06-15T02:13:32.675Z,69.68
2019-06-15T02:14:32.667Z,69.29
2019-06-15T02:15:32.786Z,69.68
2019-06-15T02:16:32.662Z,69.68
2019-06-15T02:17:32.624Z,69.35
2019-06-15T02:18:32.609Z,69.38
2019-06-15T02:19:32.610Z,69.68
2019-06-15T02:20:32.588Z,69.78
2019-06-15T02:21:32.673Z,69.98
2019-06-15T02:22:32.584Z,69.98
2019-06-15T02:23:32.567Z,69.68
2019-06-15T02:24:32.551Z,69.68
2019-06-15T02:25:36.220Z,69.68
2019-06-15T02:26:32.532Z,69.78
2019-06-15T02:27:32.596Z,69.88
2019-06-15T02:28:32.514Z,69.29
2019-06-15T02:29:32.498Z,69.68
2019-06-15T02:30:32.505Z,69.49
2019-06-15T02:31:32.500Z,69.55
2019-06-15T02:32:32.506Z,69.59
2019-06-15T02:33:32.537Z,69.49
2019-06-15T02:34:32.450Z,69.59
2019-06-15T02:35:32.466Z,69.68
2019-06-15T02:36:32.427Z,69.68
2019-06-15T02:37:32.423Z,69.38
2019-06-15T02:38:32.402Z,69.78
2019-06-15T02:39:32.480Z,69.78
2019-06-15T02:40:32.414Z,69.78
2019-06-15T02:41:32.373Z,69.88
2019-06-15T02:42:32.385Z,69.78
2019-06-15T02:43:32.347Z,69.88
2019-06-15T02:44:32.342Z,69.68
2019-06-15T02:45:32.415Z,69.68
2019-06-15T02:46:32.316Z,69.49
2019-06-15T02:47:32.305Z,69.68
2019-06-15T02:48:32.297Z,69.38
2019-06-15T02:49:32.289Z,69.38
2019-06-15T02:50:32.309Z,69.38
2019-06-15T02:51:32.343Z,69.59
2019-06-15T02:52:32.249Z,69.59
2019-06-15T02:53:32.246Z,69.98
2019-06-15T02:54:32.238Z,69.98
2019-06-15T02:55:32.215Z,69.98
2019-06-15T02:56:32.214Z,69.98
2019-06-15T02:57:32.271Z,70.08
2019-06-15T02:58:32.192Z,69.95
2019-06-15T02:59:32.488Z,69.98
2019-06-15T03:00:32.170Z,70.08
2019-06-15T03:01:32.147Z,69.98
2019-06-15T03:02:32.157Z,70.08
2019-06-15T03:03:32.211Z,69.98
2019-06-15T03:04:32.119Z,69.98
2019-06-15T03:05:32.104Z,70.18
2019-06-15T03:06:32.097Z,70.04
2019-06-15T03:07:32.093Z,70.18
2019-06-15T03:08:32.108Z,69.78
2019-06-15T03:09:32.137Z,70.08
2019-06-15T03:10:32.064Z,70.18
2019-06-15T03:11:32.047Z,70.08
2019-06-15T03:12:32.046Z,69.98
2019-06-15T03:13:32.026Z,70.18
2019-06-15T03:14:32.018Z,70.08
2019-06-15T03:15:32.080Z,70.18
2019-06-15T03:16:32.001Z,69.98
2019-06-15T03:17:31.981Z,70.08
2019-06-15T03:18:31.965Z,70.18
2019-06-15T03:19:31.967Z,70.08
2019-06-15T03:20:31.950Z,70.18
2019-06-15T03:21:32.018Z,70.18
2019-06-15T03:22:31.931Z,69.78
2019-06-15T03:23:31.941Z,70.04
2019-06-15T03:24:31.906Z,69.88
2019-06-15T03:25:31.888Z,70.18
2019-06-15T03:26:31.888Z,69.78
2019-06-15T03:27:31.937Z,70.28
2019-06-15T03:28:31.880Z,69.78
2019-06-15T03:29:31.856Z,69.85
2019-06-15T03:30:31.843Z,69.78
2019-06-15T03:31:31.837Z,69.78
2019-06-15T03:32:31.825Z,69.78
2019-06-15T03:33:31.879Z,70.28
2019-06-15T03:34:31.804Z,69.78
2019-06-15T03:35:31.794Z,69.88
2019-06-15T03:36:31.779Z,70.08
2019-06-15T03:37:31.768Z,69.85
2019-06-15T03:38:31.761Z,69.88
2019-06-15T03:39:31.815Z,69.78
2019-06-15T03:40:31.759Z,69.68
2019-06-15T03:41:31.720Z,69.68
2019-06-15T03:42:31.722Z,69.65
2019-06-15T03:43:31.702Z,69.78
2019-06-15T03:44:31.693Z,69.49
2019-06-15T03:45:31.756Z,69.68
2019-06-15T03:46:31.672Z,69.98
2019-06-15T03:47:31.661Z,69.88
2019-06-15T03:48:31.661Z,69.88
2019-06-15T03:49:31.644Z,69.68
2019-06-15T03:50:31.625Z,69.65
2019-06-15T03:51:31.689Z,69.85
2019-06-15T03:52:31.794Z,69.88
2019-06-15T03:53:31.595Z,69.88
2019-06-15T03:54:31.589Z,69.65
2019-06-15T03:55:31.572Z,69.98
2019-06-15T03:56:31.564Z,69.78
2019-06-15T03:57:31.619Z,69.68
2019-06-15T03:58:31.542Z,69.74
2019-06-15T03:59:31.567Z,69.74
2019-06-15T04:00:31.520Z,69.98
2019-06-15T04:01:31.511Z,69.88
2019-06-15T04:02:31.496Z,70.08
2019-06-15T04:03:31.559Z,69.68
2019-06-15T04:04:31.483Z,69.55
2019-06-15T04:05:31.473Z,69.55
2019-06-15T04:06:31.461Z,69.65
2019-06-15T04:07:31.445Z,69.59
2019-06-15T04:08:31.441Z,69.55
2019-06-15T04:09:31.500Z,69.74
2019-06-15T04:10:31.414Z,69.55
2019-06-15T04:11:31.401Z,69.49
2019-06-15T04:12:31.391Z,69.16
2019-06-15T04:13:31.378Z,69.26
2019-06-15T04:14:31.376Z,69.06
2019-06-15T04:15:31.427Z,68.96
2019-06-15T04:16:31.349Z,69.16
2019-06-15T04:17:31.344Z,68.96
2019-06-15T04:18:31.331Z,69.06
2019-06-15T04:19:31.314Z,69.06
2019-06-15T04:20:31.308Z,69.16
2019-06-15T04:21:31.369Z,69.06
2019-06-15T04:22:31.292Z,69.06
2019-06-15T04:23:31.273Z,69.06
2019-06-15T04:24:31.259Z,68.96
2019-06-15T04:25:31.248Z,69.35
2019-06-15T04:26:36.086Z,69.35
2019-06-15T04:27:32.330Z,69.16
2019-06-15T04:28:31.225Z,69.16
2019-06-15T04:29:31.210Z,68.86
2019-06-15T04:30:31.197Z,69.55
2019-06-15T04:31:31.189Z,69.65
2019-06-15T04:32:31.186Z,69.45
2019-06-15T04:33:31.231Z,69.55
2019-06-15T04:34:31.159Z,69.55
2019-06-15T04:35:31.140Z,68.76
2019-06-15T04:36:31.135Z,68.96
2019-06-15T04:37:31.128Z,69.06
2019-06-15T04:38:31.116Z,69.26
2019-06-15T04:39:31.179Z,69.06
2019-06-15T04:40:31.088Z,69.26
2019-06-15T04:41:31.081Z,69.16
2019-06-15T04:42:31.074Z,69.16
2019-06-15T04:43:31.048Z,69.06
2019-06-15T04:44:31.044Z,69.26
2019-06-15T04:45:31.106Z,69.16
2019-06-15T04:46:32.172Z,69.26
2019-06-15T04:47:31.004Z,69.06
2019-06-15T04:48:31.011Z,69.06
2019-06-15T04:49:30.985Z,69.26
2019-06-15T04:50:30.979Z,68.96
2019-06-15T04:51:31.049Z,69.06
2019-06-15T04:52:37.992Z,69.45
2019-06-15T04:53:30.941Z,69.16
2019-06-15T04:54:30.952Z,69.42
2019-06-15T04:55:30.937Z,69.22
2019-06-15T04:56:30.921Z,69.12
2019-06-15T04:57:30.984Z,69.16
2019-06-15T04:58:30.899Z,68.86
2019-06-15T04:59:30.889Z,69.35
2019-06-15T05:00:30.892Z,69.16
2019-06-15T05:01:30.867Z,69.26
2019-06-15T05:02:30.851Z,69.06
2019-06-15T05:03:30.926Z,69.06
2019-06-15T05:04:30.836Z,69.16
2019-06-15T05:05:30.820Z,69.22
2019-06-15T05:06:30.809Z,69.26
2019-06-15T05:07:30.796Z,68.93
2019-06-15T05:08:30.786Z,69.22
2019-06-15T05:09:30.857Z,69.12
2019-06-15T05:10:30.774Z,69.22
2019-06-15T05:11:30.762Z,69.22
2019-06-15T05:12:30.754Z,68.86
2019-06-15T05:13:30.736Z,68.86
2019-06-15T05:14:30.730Z,69.06
2019-06-15T05:15:30.791Z,69.06
2019-06-15T05:16:30.710Z,69.02
2019-06-15T05:17:30.723Z,69.22
2019-06-15T05:18:30.693Z,69.12
2019-06-15T05:19:30.670Z,69.26
2019-06-15T05:20:30.661Z,68.73
2019-06-15T05:21:30.731Z,69.12
2019-06-15T05:22:30.651Z,69.02
2019-06-15T05:23:30.647Z,69.12
2019-06-15T05:24:30.626Z,69.12
2019-06-15T05:25:30.628Z,69.02
2019-06-15T05:26:30.642Z,68.76
2019-06-15T05:27:30.659Z,68.73
2019-06-15T05:28:30.582Z,69.26
2019-06-15T05:29:30.587Z,69.32
2019-06-15T05:30:30.569Z,69.26
2019-06-15T05:31:30.544Z,68.83
2019-06-15T05:32:30.539Z,69.12
2019-06-15T05:33:30.595Z,68.83
2019-06-15T05:34:30.522Z,68.73
2019-06-15T05:35:30.503Z,68.83
2019-06-15T05:36:30.500Z,68.86
2019-06-15T05:37:30.491Z,69.55
2019-06-15T05:38:30.478Z,69.52
2019-06-15T05:39:30.551Z,69.12
2019-06-15T05:40:30.449Z,69.35
2019-06-15T05:41:30.437Z,69.42
2019-06-15T05:42:30.430Z,69.52
2019-06-15T05:43:31.319Z,69.52
2019-06-15T05:44:30.435Z,69.62
2019-06-15T05:45:30.496Z,68.73
2019-06-15T05:46:30.404Z,69.02
2019-06-15T05:47:30.390Z,69.42
2019-06-15T05:48:30.378Z,68.93
2019-06-15T05:49:30.357Z,69.42
2019-06-15T05:50:30.349Z,69.52
2019-06-15T05:51:30.444Z,69.62
2019-06-15T05:52:30.326Z,69.42
2019-06-15T05:53:30.300Z,69.22
2019-06-15T05:54:30.289Z,69.52
2019-06-15T05:55:30.296Z,69.42
2019-06-15T05:56:33.402Z,69.52
2019-06-15T05:57:30.343Z,69.42
2019-06-15T05:58:30.246Z,69.42
2019-06-15T05:59:30.241Z,69.42
2019-06-15T06:00:30.233Z,69.52
2019-06-15T06:01:30.236Z,69.42
2019-06-15T06:02:30.215Z,69.22
2019-06-15T06:03:30.302Z,69.42
2019-06-15T06:04:30.184Z,69.02
2019-06-15T06:05:30.189Z,69.52
2019-06-15T06:06:30.170Z,69.52
2019-06-15T06:07:30.165Z,69.52
2019-06-15T06:08:30.147Z,68.93
2019-06-15T06:09:30.216Z,69.52
2019-06-15T06:10:30.132Z,68.83
2019-06-15T06:11:30.116Z,68.93
2019-06-15T06:12:30.107Z,69.12
2019-06-15T06:13:30.090Z,68.83
2019-06-15T06:14:30.085Z,69.22
2019-06-15T06:15:30.140Z,69.12
2019-06-15T06:16:30.060Z,68.93
2019-06-15T06:17:30.046Z,68.83
2019-06-15T06:18:30.037Z,69.42
2019-06-15T06:19:30.025Z,68.93
2019-06-15T06:20:30.023Z,68.93
2019-06-15T06:21:30.087Z,69.22
2019-06-15T06:22:30.831Z,69.32
2019-06-15T06:23:29.991Z,68.73
2019-06-15T06:24:29.973Z,68.93
2019-06-15T06:25:29.974Z,69.12
2019-06-15T06:26:29.951Z,69.02
2019-06-15T06:27:36.398Z,69.02
2019-06-15T06:28:30.929Z,69.02
2019-06-15T06:29:29.924Z,69.02
2019-06-15T06:30:30.647Z,69.22
2019-06-15T06:31:29.899Z,69.12
2019-06-15T06:32:29.883Z,69.22
2019-06-15T06:33:29.958Z,69.22
2019-06-15T06:34:29.870Z,68.93
2019-06-15T06:35:29.854Z,69.02
2019-06-15T06:36:29.851Z,69.02
2019-06-15T06:37:29.829Z,69.22
2019-06-15T06:38:29.826Z,69.02
2019-06-15T06:39:29.894Z,69.22
2019-06-15T06:40:29.800Z,69.22
2019-06-15T06:41:29.786Z,69.22
2019-06-15T06:42:29.787Z,69.22
2019-06-15T06:43:29.766Z,69.22
2019-06-15T06:44:29.762Z,69.22
2019-06-15T06:45:29.835Z,69.22
2019-06-15T06:46:29.743Z,69.32
2019-06-15T06:47:29.725Z,69.22
2019-06-15T06:48:29.772Z,69.22
2019-06-15T06:49:29.704Z,69.42
2019-06-15T06:50:29.688Z,69.22
2019-06-15T06:51:29.775Z,69.12
2019-06-15T06:52:29.669Z,69.12
2019-06-15T06:53:29.662Z,69.12
2019-06-15T06:54:29.649Z,69.32
2019-06-15T06:55:29.630Z,69.32
2019-06-15T06:56:29.638Z,69.19
2019-06-15T06:57:29.689Z,69.32
2019-06-15T06:58:29.610Z,69.12
2019-06-15T06:59:29.602Z,69.19
2019-06-15T07:00:29.586Z,69.12
2019-06-15T07:01:29.572Z,69.12
2019-06-15T07:02:29.559Z,69.32
2019-06-15T07:03:29.636Z,69.22
2019-06-15T07:04:29.540Z,69.12
2019-06-15T07:05:29.538Z,69.22
2019-06-15T07:06:29.537Z,69.12
2019-06-15T07:07:29.510Z,69.12
2019-06-15T07:08:29.494Z,69.09
2019-06-15T07:09:29.564Z,69.12
2019-06-15T07:10:29.485Z,69.12
2019-06-15T07:11:29.468Z,69.12
2019-06-15T07:12:29.450Z,69.09
2019-06-15T07:13:29.444Z,69.19
2019-06-15T07:14:29.439Z,69.19
2019-06-15T07:15:29.504Z,69.19
2019-06-15T07:16:29.407Z,69.09
2019-06-15T07:17:29.407Z,69.19
2019-06-15T07:18:29.390Z,69.19
2019-06-15T07:19:29.387Z,69.19
2019-06-15T07:20:29.368Z,69.19
2019-06-15T07:21:29.426Z,69.19
2019-06-15T07:22:29.347Z,69.22
2019-06-15T07:23:31.873Z,68.99
2019-06-15T07:24:29.332Z,69.09
2019-06-15T07:25:29.314Z,69.12
2019-06-15T07:26:29.313Z,69.09
2019-06-15T07:27:29.382Z,69.09
2019-06-15T07:28:29.282Z,68.89
2019-06-15T07:29:29.274Z,68.89
2019-06-15T07:30:29.275Z,68.89
2019-06-15T07:31:29.243Z,68.99
2019-06-15T07:32:29.255Z,68.89
2019-06-15T07:33:29.309Z,69.19
2019-06-15T07:34:29.214Z,68.89
2019-06-15T07:35:29.209Z,68.99
2019-06-15T07:36:29.205Z,68.99
2019-06-15T07:37:29.185Z,68.99
2019-06-15T07:38:29.177Z,68.99
2019-06-15T07:39:29.252Z,68.99
2019-06-15T07:40:29.155Z,68.89
2019-06-15T07:41:29.144Z,68.60
2019-06-15T07:42:29.142Z,68.89
2019-06-15T07:43:29.166Z,68.60
2019-06-15T07:44:29.132Z,68.70
2019-06-15T07:45:29.198Z,68.60
2019-06-15T07:46:29.148Z,68.46
2019-06-15T07:47:29.077Z,68.99
2019-06-15T07:48:29.074Z,68.70
2019-06-15T07:49:29.063Z,68.60
2019-06-15T07:50:29.052Z,68.70
2019-06-15T07:51:29.107Z,68.89
2019-06-15T07:52:29.029Z,68.50
2019-06-15T07:53:29.020Z,68.89
2019-06-15T07:54:29.006Z,68.89
2019-06-15T07:55:28.996Z,68.99
2019-06-15T07:56:28.990Z,68.86
2019-06-15T07:57:29.064Z,68.56
2019-06-15T07:58:28.957Z,68.60
2019-06-15T07:59:28.948Z,68.46
2019-06-15T08:00:28.943Z,68.56
2019-06-15T08:01:28.930Z,68.60
2019-06-15T08:02:28.918Z,68.89
2019-06-15T08:03:28.991Z,68.66
2019-06-15T08:04:28.889Z,68.56
2019-06-15T08:05:28.890Z,68.89
2019-06-15T08:06:28.876Z,68.70
2019-06-15T08:07:28.862Z,68.60
2019-06-15T08:08:28.857Z,68.60
2019-06-15T08:09:28.923Z,68.89
2019-06-15T08:10:28.853Z,68.66
2019-06-15T08:11:28.823Z,68.99
2019-06-15T08:12:28.817Z,68.50
2019-06-15T08:13:28.805Z,68.99
2019-06-15T08:14:28.790Z,68.50
2019-06-15T08:15:28.862Z,68.50
2019-06-15T08:16:28.777Z,68.50
2019-06-15T08:17:28.772Z,68.46
2019-06-15T08:18:28.756Z,68.89
2019-06-15T08:19:28.742Z,68.40
2019-06-15T08:20:28.726Z,68.20
2019-06-15T08:21:28.790Z,68.79
2019-06-15T08:22:28.709Z,68.86
2019-06-15T08:23:28.690Z,68.60
2019-06-15T08:24:28.687Z,68.89
2019-06-15T08:25:28.668Z,68.60
2019-06-15T08:26:28.691Z,68.86
2019-06-15T08:27:28.731Z,68.50
2019-06-15T08:28:39.963Z,68.60
2019-06-15T08:29:29.627Z,68.50
2019-06-15T08:30:28.628Z,68.86
2019-06-15T08:31:28.613Z,68.50
2019-06-15T08:32:28.601Z,68.60
2019-06-15T08:33:28.658Z,68.60
2019-06-15T08:34:28.584Z,68.50
2019-06-15T08:35:28.566Z,68.79
2019-06-15T08:36:28.558Z,68.46
2019-06-15T08:37:28.545Z,68.70
2019-06-15T08:38:28.533Z,68.37
2019-06-15T08:39:28.595Z,68.56
2019-06-15T08:40:28.504Z,68.56
2019-06-15T08:41:28.505Z,68.40
2019-06-15T08:42:28.492Z,68.56
2019-06-15T08:43:28.476Z,68.56
2019-06-15T08:44:28.469Z,68.46
2019-06-15T08:45:28.532Z,68.46
2019-06-15T08:46:28.520Z,68.46
2019-06-15T08:47:28.441Z,68.46
2019-06-15T08:48:28.456Z,68.37
2019-06-15T08:49:28.445Z,68.56
2019-06-15T08:50:28.418Z,68.27
2019-06-15T08:51:28.481Z,68.66
2019-06-15T08:52:28.401Z,68.46
2019-06-15T08:53:28.402Z,68.56
2019-06-15T08:54:28.363Z,68.56
2019-06-15T08:55:28.357Z,68.66
2019-06-15T08:56:28.355Z,68.56
2019-06-15T08:57:28.403Z,68.50
2019-06-15T08:58:28.324Z,68.99
2019-06-15T08:59:28.301Z,69.15
2019-06-15T09:00:28.303Z,69.38
2019-06-15T09:01:28.294Z,69.19
2019-06-15T09:02:28.286Z,69.09
2019-06-15T09:03:28.341Z,68.73
2019-06-15T09:04:28.251Z,69.12
2019-06-15T09:05:28.246Z,69.22
2019-06-15T09:06:28.226Z,69.52
2019-06-15T09:07:28.222Z,69.52
2019-06-15T09:08:28.219Z,69.95
2019-06-15T09:09:28.281Z,69.65
2019-06-15T09:10:28.191Z,69.85
2019-06-15T09:11:28.186Z,69.74
2019-06-15T09:12:28.166Z,69.85
2019-06-15T09:13:28.166Z,69.68
2019-06-15T09:14:28.143Z,69.26
2019-06-15T09:15:28.215Z,69.09
2019-06-15T09:16:28.126Z,69.09
2019-06-15T09:17:28.116Z,69.38
2019-06-15T09:18:28.103Z,69.19
2019-06-15T09:19:28.094Z,69.19
2019-06-15T09:20:28.082Z,69.29
2019-06-15T09:21:28.141Z,69.02
2019-06-15T09:22:28.059Z,69.02
2019-06-15T09:23:28.055Z,69.22
2019-06-15T09:24:28.033Z,69.12
2019-06-15T09:25:28.035Z,69.22
2019-06-15T09:26:28.017Z,69.32
2019-06-15T09:27:28.090Z,69.22
2019-06-15T09:28:28.006Z,69.32
2019-06-15T09:29:27.980Z,69.16
2019-06-15T09:30:27.977Z,69.26
2019-06-15T09:31:27.971Z,69.45
2019-06-15T09:32:27.951Z,69.45
2019-06-15T09:33:28.052Z,69.35
2019-06-15T09:34:27.939Z,69.35
2019-06-15T09:35:27.925Z,69.35
2019-06-15T09:36:27.909Z,69.26
2019-06-15T09:37:27.893Z,69.29
2019-06-15T09:38:27.893Z,69.16
2019-06-15T09:39:27.957Z,69.39
2019-06-15T09:40:27.871Z,69.39
2019-06-15T09:41:27.899Z,69.49
2019-06-15T09:42:27.843Z,69.29
2019-06-15T09:43:27.839Z,69.39
2019-06-15T09:44:27.830Z,69.29
2019-06-15T09:45:27.893Z,69.19
2019-06-15T09:46:27.812Z,69.23
2019-06-15T09:47:27.788Z,69.23
2019-06-15T09:48:27.784Z,69.12
2019-06-15T09:49:27.779Z,68.93
2019-06-15T09:50:27.761Z,68.63
2019-06-15T09:51:27.822Z,68.93
2019-06-15T09:52:27.737Z,68.83
2019-06-15T09:53:27.730Z,68.73
2019-06-15T09:54:28.205Z,68.93
2019-06-15T09:55:27.705Z,68.63
2019-06-15T09:56:27.713Z,68.53
2019-06-15T09:57:27.767Z,68.24
2019-06-15T09:58:27.669Z,68.04
2019-06-15T09:59:27.667Z,68.33
2019-06-15T10:00:27.651Z,68.24
2019-06-15T10:01:27.647Z,68.13
2019-06-15T10:02:27.630Z,68.24
2019-06-15T10:03:27.698Z,68.33
2019-06-15T10:04:27.605Z,68.13
2019-06-15T10:05:27.598Z,68.24
2019-06-15T10:06:27.585Z,68.33
2019-06-15T10:07:27.580Z,68.43
2019-06-15T10:08:27.559Z,68.04
2019-06-15T10:09:27.646Z,68.43
2019-06-15T10:10:27.538Z,68.66
2019-06-15T10:11:27.539Z,68.37
2019-06-15T10:12:27.532Z,67.97
2019-06-15T10:13:27.511Z,68.57
2019-06-15T10:14:27.500Z,68.33
2019-06-15T10:15:27.572Z,68.27
2019-06-15T10:16:27.484Z,68.46
2019-06-15T10:17:27.468Z,68.17
2019-06-15T10:18:27.461Z,67.68
2019-06-15T10:19:27.438Z,67.87
2019-06-15T10:20:27.428Z,68.07
2019-06-15T10:21:27.505Z,68.07
2019-06-15T10:22:27.410Z,68.17
2019-06-15T10:23:27.401Z,68.07
2019-06-15T10:24:27.391Z,67.74
2019-06-15T10:25:27.421Z,67.84
2019-06-15T10:26:27.368Z,67.87
2019-06-15T10:27:27.434Z,68.07
2019-06-15T10:28:27.357Z,67.68
2019-06-15T10:29:41.226Z,68.07
2019-06-15T10:30:28.334Z,68.07
2019-06-15T10:31:27.320Z,67.87
2019-06-15T10:32:27.312Z,67.87
2019-06-15T10:33:27.371Z,68.07
2019-06-15T10:34:27.280Z,68.07
2019-06-15T10:35:27.267Z,67.87
2019-06-15T10:36:27.263Z,67.97
2019-06-15T10:37:27.242Z,67.87
2019-06-15T10:38:27.250Z,67.58
2019-06-15T10:39:27.337Z,67.68
2019-06-15T10:40:27.223Z,67.87
2019-06-15T10:41:27.214Z,67.68
2019-06-15T10:42:27.188Z,67.68
2019-06-15T10:43:27.188Z,67.97
2019-06-15T10:44:27.179Z,67.68
2019-06-15T10:45:27.235Z,68.07
2019-06-15T10:46:27.162Z,67.94
2019-06-15T10:47:27.147Z,68.17
2019-06-15T10:48:27.134Z,67.14
2019-06-15T10:49:27.121Z,66.95
2019-06-15T10:50:27.115Z,67.05
2019-06-15T10:51:27.171Z,66.95
2019-06-15T10:52:27.094Z,66.65
2019-06-15T10:53:27.082Z,66.85
2019-06-15T10:54:27.070Z,66.42
2019-06-15T10:55:27.061Z,66.42
2019-06-15T10:56:27.042Z,66.52
2019-06-15T10:57:27.104Z,66.22
2019-06-15T10:58:27.022Z,66.39
2019-06-15T10:59:27.010Z,66.49
2019-06-15T11:00:26.998Z,66.09
2019-06-15T11:01:27.033Z,66.09
2019-06-15T11:02:26.983Z,66.19
2019-06-15T11:03:27.043Z,66.29
2019-06-15T11:04:26.957Z,66.19
2019-06-15T11:05:26.946Z,65.60
2019-06-15T11:06:26.935Z,65.86
2019-06-15T11:07:26.927Z,66.00
2019-06-15T11:08:26.912Z,65.90
2019-06-15T11:09:26.984Z,65.86
2019-06-15T11:10:26.902Z,65.67
2019-06-15T11:11:26.893Z,65.86
2019-06-15T11:12:26.874Z,65.86
2019-06-15T11:13:26.865Z,65.67
2019-06-15T11:14:26.855Z,65.86
2019-06-15T11:15:26.916Z,65.67
2019-06-15T11:16:26.839Z,65.47
2019-06-15T11:17:26.819Z,65.77
2019-06-15T11:18:26.810Z,65.54
2019-06-15T11:19:26.797Z,65.73
2019-06-15T11:20:26.790Z,65.54
2019-06-15T11:21:26.854Z,65.64
2019-06-15T11:22:26.764Z,65.73
2019-06-15T11:23:26.750Z,65.64
2019-06-15T11:24:26.750Z,65.64
2019-06-15T11:25:26.736Z,65.64
2019-06-15T11:26:26.723Z,65.61
2019-06-15T11:27:26.780Z,65.61
2019-06-15T11:28:26.696Z,65.61
2019-06-15T11:29:26.698Z,65.70
2019-06-15T11:30:26.670Z,65.61
2019-06-15T11:31:26.671Z,65.70
2019-06-15T11:32:26.658Z,65.70
2019-06-15T11:33:26.707Z,65.70
2019-06-15T11:34:26.640Z,65.70
2019-06-15T11:35:26.625Z,65.61
2019-06-15T11:36:26.621Z,65.70
2019-06-15T11:37:26.603Z,65.61
2019-06-15T11:38:26.599Z,65.50
2019-06-15T11:39:26.681Z,65.61
2019-06-15T11:40:26.604Z,65.50
2019-06-15T11:41:26.562Z,65.57
2019-06-15T11:42:26.549Z,65.47
2019-06-15T11:43:26.536Z,65.67
2019-06-15T11:44:26.527Z,65.70
2019-06-15T11:45:26.861Z,65.67
2019-06-15T11:46:26.515Z,65.67
2019-06-15T11:47:26.513Z,65.67
2019-06-15T11:48:26.485Z,65.57
2019-06-15T11:49:26.480Z,65.67
2019-06-15T11:50:26.457Z,65.77
2019-06-15T11:51:26.534Z,65.77
2019-06-15T11:52:26.449Z,65.77
2019-06-15T11:53:26.423Z,66.06
2019-06-15T11:54:26.424Z,65.97
2019-06-15T11:55:38.578Z,66.39
2019-06-15T11:56:27.475Z,66.30
2019-06-15T11:57:26.387Z,66.00
2019-06-15T11:58:26.389Z,66.39
2019-06-15T11:59:26.376Z,66.42
2019-06-15T12:00:31.312Z,66.30
2019-06-15T12:01:27.352Z,66.52
2019-06-15T12:02:26.403Z,66.63
2019-06-15T12:03:26.332Z,66.52
2019-06-15T12:04:26.324Z,66.72
2019-06-15T12:05:26.344Z,66.92
2019-06-15T12:06:26.296Z,66.82
2019-06-15T12:07:26.284Z,66.75
2019-06-15T12:08:26.356Z,66.85
2019-06-15T12:09:26.262Z,66.95
2019-06-15T12:10:26.258Z,66.85
2019-06-15T12:11:26.244Z,67.05
2019-06-15T12:12:26.240Z,66.85
2019-06-15T12:13:26.224Z,67.05
2019-06-15T12:14:26.280Z,66.95
2019-06-15T12:15:26.190Z,66.95
2019-06-15T12:16:26.192Z,67.05
2019-06-15T12:17:26.175Z,66.99
2019-06-15T12:18:26.166Z,66.99
2019-06-15T12:19:26.157Z,67.08
2019-06-15T12:20:26.579Z,66.99
2019-06-15T12:21:26.137Z,67.08
2019-06-15T12:22:26.852Z,66.78
2019-06-15T12:23:26.118Z,66.78
2019-06-15T12:24:26.102Z,66.78
2019-06-15T12:25:26.086Z,66.69
2019-06-15T12:26:26.160Z,66.36
2019-06-15T12:27:26.065Z,66.49
2019-06-15T12:28:26.055Z,66.16
2019-06-15T12:29:26.038Z,66.16
2019-06-15T12:30:26.031Z,66.36
2019-06-15T12:31:26.023Z,65.97
2019-06-15T12:32:26.087Z,66.06
2019-06-15T12:33:26.012Z,66.16
2019-06-15T12:34:25.991Z,65.86
2019-06-15T12:35:25.981Z,65.86
2019-06-15T12:36:25.976Z,65.83
2019-06-15T12:37:25.956Z,65.54
2019-06-15T12:38:26.030Z,65.64
2019-06-15T12:39:25.938Z,65.54
2019-06-15T12:40:25.931Z,65.64
2019-06-15T12:41:25.922Z,65.44
2019-06-15T12:42:25.907Z,65.64
2019-06-15T12:43:25.899Z,65.73
2019-06-15T12:44:25.965Z,65.80
2019-06-15T12:45:25.878Z,65.70
2019-06-15T12:46:25.867Z,66.00
2019-06-15T12:47:25.860Z,65.90
2019-06-15T12:48:25.849Z,65.80
2019-06-15T12:49:25.831Z,65.70
2019-06-15T12:50:25.894Z,66.00
2019-06-15T12:51:25.807Z,65.90
2019-06-15T12:52:25.799Z,65.70